| time (UTC) | temp F | wind direction | speed knots | gust knots | rain 1hr in | rain 24hr in | rain mn in | humidity % | barometer mb |
| 20260510152004 | 55 | 50 | 5.2 | 13.9 | 0.00 | 0.00 | 0.00 | 63 | 1016.4 |
| 20260510151003 | 54 | 59 | 5.2 | 15.6 | 0.00 | 0.00 | 0.00 | 64 | 1016.4 |
| 20260510150004 | 54 | 58 | 5.2 | 16.5 | 0.00 | 0.00 | 0.00 | 67 | 1016.6 |
| 20260510145003 | 54 | 58 | 5.2 | 16.5 | 0.00 | 0.00 | 0.00 | 64 | 1016.6 |
| 20260510144004 | 54 | 62 | 5.2 | 16.5 | 0.00 | 0.00 | 0.00 | 65 | 1016.8 |
| 20260510143003 | 54 | 54 | 6.1 | 15.6 | 0.00 | 0.00 | 0.00 | 67 | 1016.9 |
| 20260510142004 | 54 | 60 | 5.2 | 18.2 | 0.00 | 0.00 | 0.00 | 68 | 1016.9 |
| 20260510141004 | 54 | 46 | 5.2 | 16.5 | 0.00 | 0.00 | 0.00 | 66 | 1017.1 |
| 20260510140003 | 54 | 52 | 6.1 | 16.5 | 0.00 | 0.00 | 0.00 | 66 | 1017.2 |
| 20260510135004 | 54 | 47 | 5.2 | 13.9 | 0.00 | 0.00 | 0.00 | 68 | 1017.2 |
| 20260510134004 | 54 | 43 | 6.1 | 16.5 | 0.00 | 0.00 | 0.00 | 67 | 1017.2 |
| 20260510133004 | 56 | 44 | 6.1 | 15.6 | 0.00 | 0.00 | 0.00 | 66 | 1017.2 |
| 20260510132003 | 56 | 54 | 6.1 | 15.6 | 0.00 | 0.00 | 0.00 | 65 | 1017.3 |
| 20260510131005 | 55 | 62 | 5.2 | 15.6 | 0.00 | 0.00 | 0.00 | 69 | 1017.4 |
| 20260510130003 | 53 | 50 | 6.1 | 15.6 | 0.00 | 0.00 | 0.00 | 70 | 1017.4 |
| 20260510125005 | 54 | 52 | 6.1 | 16.5 | 0.00 | 0.00 | 0.00 | 68 | 1017.4 |
| 20260510124003 | 53 | 37 | 5.2 | 13.9 | 0.00 | 0.00 | 0.00 | 70 | 1017.6 |
| 20260510123005 | 53 | 41 | 5.2 | 13.9 | 0.00 | 0.00 | 0.00 | 70 | 1017.7 |
| 20260510122004 | 53 | 47 | 6.1 | 18.2 | 0.00 | 0.00 | 0.00 | 70 | 1017.7 |
| 20260510121005 | 54 | 54 | 6.1 | 16.5 | 0.00 | 0.00 | 0.00 | 71 | 1017.8 |
| 20260510120004 | 53 | 52 | 5.2 | 13.0 | 0.00 | 0.00 | 0.00 | 73 | 1017.9 |
| 20260510114005 | 52 | 51 | 7.8 | 19.1 | 0.00 | 0.00 | 0.00 | 74 | 1018.0 |
| 20260510113003 | 52 | 49 | 5.2 | 20.9 | 0.00 | 0.00 | 0.00 | 76 | 1018.2 |
| 20260510111003 | 51 | 41 | 3.5 | 13.0 | 0.00 | 0.00 | 0.00 | 77 | 1018.4 |
| 20260510110004 | 51 | 46 | 3.5 | 13.9 | 0.00 | 0.00 | 0.00 | 78 | 1018.5 |
| 20260510105005 | 52 | 59 | 5.2 | 19.1 | 0.00 | 0.00 | 0.00 | 76 | 1018.7 |
| 20260510104005 | 52 | 49 | 3.5 | 15.6 | 0.00 | 0.00 | 0.00 | 76 | 1018.6 |
| 20260510103005 | 52 | 57 | 5.2 | 13.9 | 0.00 | 0.00 | 0.00 | 77 | 1018.5 |
| 20260510102005 | 52 | 46 | 5.2 | 13.9 | 0.00 | 0.00 | 0.00 | 77 | 1018.6 |
| 20260510101005 | 52 | 57 | 5.2 | 16.5 | 0.00 | 0.00 | 0.00 | 79 | 1018.7 |
| 20260510100004 | 52 | 45 | 3.5 | 13.9 | 0.00 | 0.00 | 0.00 | 79 | 1018.7 |
| 20260510095005 | 51 | 58 | 3.5 | 13.0 | 0.00 | 0.00 | 0.00 | 81 | 1018.8 |
| 20260510094005 | 51 | 53 | 3.5 | 16.5 | 0.00 | 0.00 | 0.00 | 83 | 1018.9 |
| 20260510093004 | 50 | 52 | 3.5 | 13.0 | 0.00 | 0.00 | 0.00 | 84 | 1019.0 |
| 20260510092005 | 51 | 41 | 3.5 | 13.0 | 0.00 | 0.00 | 0.00 | 84 | 1019.0 |
| 20260510090008 | 51 | 50 | 5.2 | 16.5 | 0.00 | 0.00 | 0.00 | 83 | 1019.0 |
| 20260510084005 | 51 | 46 | 5.2 | 13.0 | 0.00 | 0.00 | 0.00 | 83 | 1018.9 |
| 20260510083005 | 51 | 53 | 3.5 | 13.0 | 0.00 | 0.00 | 0.00 | 83 | 1019.0 |
| 20260510082006 | 51 | 51 | 6.1 | 16.5 | 0.00 | 0.00 | 0.00 | 83 | 1019.0 |
| 20260510080004 | 51 | 53 | 3.5 | 15.6 | 0.00 | 0.00 | 0.00 | 83 | 1019.0 |
| 20260510075004 | 51 | 52 | 5.2 | 15.6 | 0.00 | 0.00 | 0.00 | 84 | 1018.9 |
| 20260510074004 | 51 | 52 | 5.2 | 13.0 | 0.00 | 0.00 | 0.00 | 85 | 1018.9 |
| 20260510073005 | 50 | 52 | 3.5 | 13.9 | 0.00 | 0.00 | 0.00 | 86 | 1018.9 |
| 20260510072005 | 50 | 47 | 3.5 | 13.0 | 0.00 | 0.00 | 0.00 | 86 | 1018.9 |
| 20260510071006 | 50 | 54 | 3.5 | 15.6 | 0.00 | 0.00 | 0.00 | 87 | 1018.9 |
| 20260510070005 | 50 | 51 | 5.2 | 13.0 | 0.00 | 0.00 | 0.00 | 88 | 1018.7 |
| 20260510065006 | 50 | 49 | 5.2 | 16.5 | 0.00 | 0.00 | 0.00 | 89 | 1018.7 |
| 20260510064006 | 50 | 53 | 3.5 | 13.0 | 0.00 | 0.00 | 0.00 | 90 | 1018.7 |
| 20260510063004 | 50 | 46 | 3.5 | 13.9 | 0.00 | 0.00 | 0.00 | 92 | 1018.6 |
| 20260510062006 | 49 | 43 | 3.5 | 11.3 | 0.00 | 0.00 | 0.00 | 93 | 1018.6 |
| 20260510060006 | 49 | 41 | 3.5 | 11.3 | 0.00 | 0.00 | 0.00 | 95 | 1018.5 |
| 20260510055005 | 49 | 34 | 3.5 | 11.3 | 0.00 | 0.00 | 0.00 | 95 | 1018.4 |
| 20260510053004 | 48 | 47 | 3.5 | 13.0 | 0.00 | 0.00 | 0.00 | 95 | 1018.3 |
| 20260510052005 | 47 | 44 | 3.5 | 10.4 | 0.00 | 0.00 | 0.00 | 96 | 1018.3 |
| 20260510051004 | 47 | 44 | 2.6 | 7.8 | 0.00 | 0.00 | 0.00 | 95 | 1018.4 |
| 20260510050005 | 47 | 48 | 3.5 | 8.7 | 0.00 | 0.00 | 0.00 | 95 | 1018.4 |
| 20260510045005 | 46 | 51 | 3.5 | 8.7 | 0.00 | 0.00 | 0.00 | 95 | 1018.4 |
| 20260510043004 | 46 | 50 | 2.6 | 6.1 | 0.00 | 0.00 | 0.00 | 95 | 1018.6 |
| 20260510042006 | 46 | 45 | 0.9 | 5.2 | 0.00 | 0.00 | 0.00 | 95 | 1018.7 |
| 20260510041005 | 46 | 29 | 0.9 | 3.5 | 0.00 | 0.00 | 0.00 | 95 | 1018.6 |
| 20260510040006 | 46 | 39 | 0.9 | 5.2 | 0.00 | 0.00 | 0.00 | 95 | 1018.7 |
| 20260510034005 | 46 | 49 | 2.6 | 5.2 | 0.00 | 0.00 | 0.00 | 94 | 1018.7 |
| 20260510032005 | 46 | 48 | 0.9 | 3.5 | 0.00 | 0.00 | 0.00 | 94 | 1019.0 |
| 20260510031004 | 47 | 40 | 0.9 | 3.5 | 0.00 | 0.00 | 0.00 | 94 | 1019.0 |
| 20260510030005 | 47 | 34 | 0.9 | 3.5 | 0.00 | 0.00 | 0.00 | 94 | 1019.0 |
| 20260510025004 | 47 | 0 | 0.0 | 3.5 | 0.00 | 0.00 | 0.00 | 94 | 1019.3 |
| 20260510024004 | 47 | 27 | 0.9 | 5.2 | 0.00 | 0.00 | 0.00 | 93 | 1019.2 |
| 20260510023006 | 48 | 32 | 0.9 | 3.5 | 0.00 | 0.00 | 0.00 | 93 | 1019.2 |
| 20260510022005 | 48 | 32 | 0.9 | 5.2 | 0.00 | 0.00 | 0.00 | 93 | 1019.1 |
| 20260510021006 | 48 | 40 | 2.6 | 7.8 | 0.00 | 0.00 | 0.00 | 94 | 1019.1 |
| 20260510020006 | 48 | 39 | 3.5 | 13.9 | 0.00 | 0.00 | 0.00 | 94 | 1019.1 |
| 20260510014005 | 48 | 39 | 0.9 | 8.7 | 0.00 | 0.00 | 0.00 | 94 | 1019.2 |
| 20260510013004 | 48 | 0 | 0.0 | 3.5 | 0.00 | 0.00 | 0.00 | 93 | 1019.3 |
| 20260510012005 | 48 | 0 | 0.0 | 2.6 | 0.00 | 0.00 | 0.00 | 93 | 1019.2 |
| 20260510011004 | 49 | 0 | 0.0 | 3.5 | 0.00 | 0.00 | 0.00 | 93 | 1019.1 |
| 20260510010005 | 49 | 67 | 0.9 | 3.5 | 0.00 | 0.00 | 0.00 | 94 | 1019.1 |
| 20260510005005 | 49 | 48 | 0.9 | 5.2 | 0.00 | 0.00 | 0.00 | 94 | 1019.2 |
| 20260510004006 | 49 | 47 | 2.6 | 5.2 | 0.00 | 0.00 | 0.00 | 94 | 1019.1 |
| 20260510003005 | 49 | 45 | 2.6 | 6.1 | 0.00 | 0.00 | 0.00 | 94 | 1019.0 |
| 20260510002005 | 49 | 37 | 2.6 | 5.2 | 0.00 | 0.00 | 0.00 | 94 | 1019.1 |
| 20260510001004 | 49 | 36 | 0.9 | 8.7 | 0.00 | 0.00 | 0.00 | 94 | 1019.2 |
| 20260509235005 | 49 | 34 | 2.6 | 7.8 | 0.00 | 0.00 | 0.00 | 94 | 1019.3 |
| 20260509234005 | 49 | 50 | 2.6 | 6.1 | 0.00 | 0.00 | 0.00 | 94 | 1019.4 |
| 20260509233005 | 49 | 51 | 2.6 | 6.1 | 0.00 | 0.00 | 0.00 | 94 | 1019.5 |
| 20260509232005 | 49 | 52 | 2.6 | 6.1 | 0.00 | 0.00 | 0.00 | 94 | 1019.6 |
| 20260509231005 | 49 | 57 | 2.6 | 7.8 | 0.00 | 0.00 | 0.00 | 94 | 1019.7 |
| 20260509230005 | 49 | 54 | 2.6 | 7.8 | 0.00 | 0.00 | 0.00 | 94 | 1019.5 |
| 20260509225005 | 49 | 47 | 2.6 | 3.5 | 0.00 | 0.00 | 0.00 | 93 | 1019.4 |
| 20260509223004 | 49 | 54 | 2.6 | 8.7 | 0.00 | 0.00 | 0.00 | 93 | 1019.2 |
| 20260509222004 | 49 | 54 | 2.6 | 6.1 | 0.00 | 0.00 | 0.00 | 92 | 1019.2 |
| 20260509221005 | 49 | 62 | 0.9 | 3.5 | 0.00 | 0.00 | 0.00 | 91 | 1019.3 |
| 20260509220006 | 50 | 57 | 2.6 | 6.1 | 0.00 | 0.00 | 0.00 | 91 | 1019.0 |
| 20260509215005 | 50 | 50 | 2.6 | 5.2 | 0.00 | 0.00 | 0.00 | 90 | 1019.0 |
| 20260509214004 | 50 | 68 | 0.9 | 3.5 | 0.00 | 0.00 | 0.00 | 89 | 1019.0 |
| 20260509213004 | 51 | 63 | 0.9 | 7.8 | 0.00 | 0.00 | 0.00 | 89 | 1019.0 |
| 20260509212004 | 51 | 56 | 0.9 | 3.5 | 0.00 | 0.00 | 0.00 | 87 | 1019.0 |
| 20260509211005 | 51 | 55 | 0.9 | 5.2 | 0.00 | 0.00 | 0.00 | 85 | 1018.7 |
| 20260509210004 | 51 | 62 | 2.6 | 6.1 | 0.00 | 0.00 | 0.00 | 84 | 1018.7 |
| 20260509205005 | 51 | 58 | 2.6 | 8.7 | 0.00 | 0.00 | 0.00 | 82 | 1018.7 |
| 20260509204005 | 52 | 58 | 2.6 | 5.2 | 0.00 | 0.00 | 0.00 | 80 | 1018.8 |
| 20260509203004 | 52 | 61 | 0.9 | 3.5 | 0.00 | 0.00 | 0.00 | 78 | 1018.8 |
| 20260509202005 | 53 | 56 | 0.9 | 3.5 | 0.00 | 0.00 | 0.00 | 77 | 1018.7 |
| 20260509201004 | 53 | 0 | 0.0 | 2.6 | 0.00 | 0.00 | 0.00 | 75 | 1018.8 |
| 20260509200004 | 54 | 0 | 0.0 | 2.6 | 0.00 | 0.00 | 0.00 | 73 | 1018.8 |
| 20260509195004 | 55 | 58 | 0.9 | 5.2 | 0.00 | 0.00 | 0.00 | 71 | 1018.6 |
| 20260509194005 | 55 | 56 | 0.9 | 3.5 | 0.00 | 0.00 | 0.00 | 68 | 1018.6 |
| 20260509193004 | 56 | 63 | 0.9 | 3.5 | 0.00 | 0.00 | 0.00 | 67 | 1018.3 |
| 20260509192005 | 57 | 63 | 0.9 | 3.5 | 0.00 | 0.00 | 0.00 | 64 | 1018.3 |
| 20260509191004 | 57 | 67 | 0.9 | 6.1 | 0.00 | 0.00 | 0.00 | 62 | 1018.2 |
| 20260509185004 | 59 | 70 | 0.9 | 6.1 | 0.00 | 0.00 | 0.00 | 60 | 1017.9 |
| 20260509184005 | 59 | 82 | 0.9 | 3.5 | 0.00 | 0.00 | 0.00 | 58 | 1017.9 |
| 20260509183004 | 60 | 69 | 0.9 | 5.2 | 0.00 | 0.00 | 0.00 | 56 | 1017.8 |
| 20260509182004 | 60 | 69 | 0.9 | 5.2 | 0.00 | 0.00 | 0.00 | 54 | 1017.9 |
| 20260509181004 | 61 | 55 | 0.9 | 7.8 | 0.00 | 0.00 | 0.00 | 53 | 1018.0 |
| 20260509180004 | 61 | 66 | 0.9 | 10.4 | 0.00 | 0.00 | 0.00 | 52 | 1018.0 |
| 20260509175004 | 61 | 56 | 2.6 | 10.4 | 0.00 | 0.00 | 0.00 | 52 | 1018.1 |
| 20260509174004 | 62 | 58 | 2.6 | 11.3 | 0.00 | 0.00 | 0.00 | 51 | 1018.2 |
| 20260509173004 | 62 | 62 | 2.6 | 10.4 | 0.00 | 0.00 | 0.00 | 50 | 1018.0 |
| 20260509172005 | 62 | 54 | 2.6 | 10.4 | 0.00 | 0.00 | 0.00 | 49 | 1018.0 |
| 20260509171004 | 63 | 62 | 0.9 | 6.1 | 0.00 | 0.00 | 0.00 | 48 | 1018.1 |
| 20260509170004 | 64 | 66 | 2.6 | 7.8 | 0.00 | 0.00 | 0.00 | 47 | 1018.1 |
| 20260509165005 | 65 | 62 | 2.6 | 11.3 | 0.00 | 0.00 | 0.00 | 46 | 1018.1 |
| 20260509164004 | 65 | 54 | 3.5 | 8.7 | 0.00 | 0.00 | 0.00 | 46 | 1018.0 |
| 20260509163004 | 66 | 59 | 3.5 | 10.4 | 0.00 | 0.00 | 0.00 | 45 | 1018.0 |
| 20260509162005 | 66 | 53 | 3.5 | 11.3 | 0.00 | 0.00 | 0.00 | 44 | 1018.0 |
| 20260509161004 | 66 | 50 | 3.5 | 8.7 | 0.00 | 0.00 | 0.00 | 44 | 1017.7 |
| 20260509160004 | 67 | 69 | 2.6 | 11.3 | 0.00 | 0.00 | 0.00 | 42 | 1017.6 |
| 20260509155005 | 67 | 56 | 3.5 | 13.0 | 0.00 | 0.00 | 0.00 | 42 | 1017.5 |
| 20260509154004 | 68 | 76 | 2.6 | 10.4 | 0.00 | 0.00 | 0.00 | 41 | 1017.6 |